createdAt,value
2023-02-23T13:54:29.838Z,19.50
2023-02-23T13:55:49.150Z,19.35
2023-02-23T13:57:01.230Z,19.95
2023-02-23T13:58:07.374Z,22.20
2023-02-23T13:59:33.793Z,19.60
2023-02-23T14:00:56.101Z,18.35
2023-02-23T14:02:00.868Z,20.55
2023-02-23T14:03:19.424Z,19.23
2023-02-23T14:04:26.955Z,19.00
2023-02-23T14:05:39.420Z,19.75
2023-02-23T14:07:12.752Z,19.65
2023-02-23T14:08:37.011Z,19.77
2023-02-23T14:09:48.117Z,20.90
2023-02-23T14:11:05.621Z,19.20
2023-02-23T14:12:11.063Z,20.55
2023-02-23T14:15:42.064Z,18.13
2023-02-23T14:22:04.728Z,16.75
2023-02-23T14:24:01.261Z,20.80
2023-02-23T14:25:40.282Z,20.15
2023-02-23T14:36:56.582Z,16.45
2023-02-23T14:40:29.033Z,15.77
2023-02-23T14:51:19.129Z,15.57
2023-02-23T14:57:29.984Z,12.57
2023-02-23T14:58:39.940Z,13.93
2023-02-23T15:03:38.252Z,13.80
2023-02-23T15:04:49.153Z,12.90
2023-02-23T15:06:18.493Z,12.80
2023-02-23T15:10:39.075Z,11.32
2023-02-23T15:12:01.558Z,10.95
2023-02-23T15:20:30.691Z,12.52
2023-02-23T15:22:01.775Z,9.20
2023-02-23T15:23:17.421Z,13.43
2023-02-23T15:30:56.662Z,12.70
2023-02-23T15:32:19.596Z,11.80
2023-02-23T15:34:00.129Z,11.63
2023-02-23T15:35:06.027Z,11.43
2023-02-23T15:38:40.575Z,12.35
2023-02-23T15:40:10.506Z,10.88
2023-02-23T15:42:01.797Z,10.25
2023-02-23T15:44:46.431Z,10.45
2023-02-23T15:46:21.372Z,10.00
2023-02-23T15:48:15.392Z,10.48
2023-02-23T15:49:22.405Z,8.38
2023-02-23T15:52:28.872Z,10.15
2023-02-23T15:53:57.087Z,11.88
2023-02-23T15:56:41.941Z,11.00
2023-02-23T15:58:25.468Z,11.10
2023-02-23T15:59:38.705Z,12.85
2023-02-23T16:00:59.929Z,9.85
2023-02-23T16:06:24.354Z,9.05
2023-02-23T16:07:55.370Z,9.68
2023-02-23T16:09:53.685Z,9.85
2023-02-23T16:11:19.806Z,8.88
2023-02-23T16:12:37.479Z,7.75
2023-02-23T16:13:51.808Z,9.57
2023-02-23T16:16:48.726Z,8.88
2023-02-23T16:18:01.258Z,8.93
2023-02-23T16:19:07.768Z,9.32
2023-02-23T16:31:08.939Z,9.80
2023-02-23T16:32:16.725Z,8.65
2023-02-23T16:33:52.144Z,11.05
2023-02-23T16:34:59.998Z,15.93
2023-02-23T16:36:20.399Z,15.07
2023-02-23T16:37:46.832Z,15.07
2023-02-23T16:56:46.495Z,17.95
2023-02-23T16:57:54.340Z,17.75
2023-02-23T16:58:59.075Z,19.92
2023-02-23T17:00:01.849Z,18.63
2023-02-23T17:01:03.947Z,16.15
2023-02-23T17:02:11.044Z,18.15
2023-02-23T17:03:26.806Z,19.52
2023-02-23T17:04:29.578Z,16.80
2023-02-23T17:05:34.883Z,18.42
2023-02-23T17:06:38.358Z,40.80
2023-02-23T17:07:40.062Z,35.38
2023-02-23T17:08:52.178Z,32.28
